Time;durP1;ratioP1;P1;durP2;ratioP2;P2;SDS_P1;SDS_P2;PMS_P1;PMS_P2;Temp;Humidity;BMP_temperature;BMP_pressure;BME280_temperature;BME280_humidity;BME280_pressure;Samples;Min_cycle;Max_cycle;Signal;HPM_P1;HPM_P2
2022/01/17 00:00:16;;;;;;;51.15;19.55;;;2.80;99.90;;;;;;5045580;28;20032;-84
2022/01/17 00:02:43;;;;;;;47.38;18.02;;;2.70;99.90;;;;;;5042700;28;20033;-82
2022/01/17 00:05:10;;;;;;;52.13;19.60;;;2.70;99.90;;;;;;5045897;28;20034;-81
2022/01/17 00:07:36;;;;;;;49.08;17.73;;;2.70;99.90;;;;;;5041670;28;20048;-82
2022/01/17 00:10:04;;;;;;;56.65;21.70;;;2.60;99.90;;;;;;5047251;28;20037;-80
2022/01/17 00:12:33;;;;;;;50.50;19.55;;;;;;;;;;5048171;28;20025;-84
2022/01/17 00:14:59;;;;;;;46.15;18.25;;;;;;;;;;5050907;28;20025;-81
2022/01/17 00:17:34;;;;;;;53.53;19.67;;;;;;;;;;5047914;28;20014;-84
2022/01/17 00:20:09;;;;;;;54.85;18.27;;;;;;;;;;5053365;28;20030;-85
2022/01/17 00:22:35;;;;;;;54.38;20.50;;;;;;;;;;5052858;28;20029;-82
2022/01/17 00:25:03;;;;;;;51.00;18.45;;;2.60;99.90;;;;;;5055658;28;20038;-86
2022/01/17 00:27:31;;;;;;;51.42;18.65;;;;;;;;;;5049200;28;20031;-84
2022/01/17 00:29:56;;;;;;;50.35;19.35;;;2.60;99.90;;;;;;5050780;28;20029;-82
2022/01/17 00:32:22;;;;;;;55.17;18.30;;;2.50;99.90;;;;;;5050437;28;20067;-83
2022/01/17 00:34:48;;;;;;;58.75;20.60;;;2.70;99.90;;;;;;5050141;28;20041;-81
2022/01/17 00:37:14;;;;;;;58.97;20.70;;;;;;;;;;5049586;28;20056;-82
2022/01/17 00:39:40;;;;;;;61.65;21.00;;;;;;;;;;5047754;28;20026;-80
2022/01/17 00:42:06;;;;;;;57.30;20.13;;;2.60;99.90;;;;;;5049851;28;20025;-81
2022/01/17 00:44:32;;;;;;;53.95;18.92;;;;;;;;;;5049385;28;20021;-82
2022/01/17 00:47:00;;;;;;;67.03;22.25;;;;;;;;;;5050273;28;20029;-80
2022/01/17 00:49:26;;;;;;;53.13;19.58;;;;;;;;;;5051992;28;20017;-81
2022/01/17 00:51:52;;;;;;;47.65;17.77;;;;;;;;;;5049035;28;20052;-81
2022/01/17 00:54:18;;;;;;;54.67;18.35;;;2.60;99.90;;;;;;5045608;28;20033;-81
2022/01/17 00:56:44;;;;;;;55.38;18.65;;;;;;;;;;5050013;28;20068;-83
2022/01/17 00:59:11;;;;;;;50.13;19.10;;;;;;;;;;5046560;28;20025;-83
2022/01/17 01:01:36;;;;;;;54.95;19.73;;;2.70;99.90;;;;;;5050358;28;20101;-79
2022/01/17 01:04:02;;;;;;;56.22;18.95;;;;;;;;;;5051558;28;20044;-79
2022/01/17 01:06:30;;;;;;;58.88;19.77;;;;;;;;;;5049390;28;20021;-82
2022/01/17 01:08:56;;;;;;;56.17;18.63;;;;;;;;;;5050893;28;20013;-80
2022/01/17 01:11:22;;;;;;;47.40;18.40;;;;;;;;;;5048711;28;20385;-81
2022/01/17 01:13:48;;;;;;;53.00;18.55;;;;;;;;;;5045326;28;20052;-82
2022/01/17 01:29:32;;;;;;;53.97;17.08;;;2.30;99.90;;;;;;5046229;28;20097;-79
2022/01/17 01:32:09;;;;;;;53.83;18.45;;;2.50;99.90;;;;;;5061795;28;20037;-82
2022/01/17 01:34:40;;;;;;;50.50;16.95;;;;;;;;;;5044410;28;20034;-81
2022/01/17 01:37:06;;;;;;;47.47;15.68;;;2.50;99.90;;;;;;5047577;28;20025;-79
2022/01/17 01:39:33;;;;;;;45.78;15.80;;;2.60;99.90;;;;;;5044779;28;20106;-82
2022/01/17 01:41:59;;;;;;;43.33;15.75;;;2.60;99.90;;;;;;5048029;28;20022;-81
2022/01/17 01:44:27;;;;;;;48.80;14.98;;;2.60;99.90;;;;;;5044785;28;20025;-82
2022/01/17 01:46:55;;;;;;;41.25;15.27;;;2.60;99.90;;;;;;5045150;28;20029;-82
2022/01/17 01:49:22;;;;;;;44.40;15.80;;;3.30;99.90;;;;;;5047527;28;20490;-80
2022/01/17 01:51:48;;;;;;;40.85;15.30;;;;;;;;;;5040555;28;20026;-80
2022/01/17 01:54:15;;;;;;;42.65;15.48;;;2.60;99.90;;;;;;5045238;28;20031;-83
2022/01/17 01:56:44;;;;;;;41.50;15.52;;;2.60;99.90;;;;;;5041570;28;20032;-80
2022/01/17 01:59:11;;;;;;;40.80;14.48;;;2.60;99.90;;;;;;5045658;28;20056;-81
2022/01/17 02:01:38;;;;;;;41.90;15.60;;;4.40;99.90;;;;;;5046240;28;20025;-80
2022/01/17 02:04:04;;;;;;;38.70;14.70;;;2.90;99.90;;;;;;5041468;28;20429;-80
2022/01/17 02:06:32;;;;;;;41.83;15.10;;;;;;;;;;5050111;28;20030;-80
2022/01/17 02:08:58;;;;;;;42.17;14.73;;;;;;;;;;5048088;28;20025;-81
2022/01/17 02:11:24;;;;;;;39.63;14.27;;;2.60;99.90;;;;;;5043727;28;20016;-80
2022/01/17 02:13:50;;;;;;;39.75;14.90;;;4.50;99.90;;;;;;5061166;28;20018;-82
2022/01/17 02:16:16;;;;;;;37.40;15.20;;;2.60;99.90;;;;;;5047144;28;20055;-80
2022/01/17 02:18:44;;;;;;;40.10;14.40;;;2.50;99.90;;;;;;5047113;28;20052;-82
2022/01/17 02:23:45;;;;;;;45.00;15.80;;;2.50;99.90;;;;;;5049937;28;20008;-83
2022/01/17 02:26:12;;;;;;;44.17;15.90;;;2.30;99.90;;;;;;5048330;28;20018;-83
2022/01/17 02:28:41;;;;;;;38.83;14.20;;;;;;;;;;5044013;28;20025;-81
2022/01/17 02:31:07;;;;;;;38.97;14.07;;;;;;;;;;5048085;28;20029;-81
2022/01/17 02:33:35;;;;;;;46.05;16.58;;;2.50;99.90;;;;;;5046744;28;20035;-81
2022/01/17 02:36:01;;;;;;;39.42;13.90;;;;;;;;;;5045230;28;20100;-83
2022/01/17 02:38:28;;;;;;;41.97;15.75;;;2.50;99.90;;;;;;5046738;28;20147;-81
2022/01/17 02:40:54;;;;;;;42.45;14.77;;;2.50;99.90;;;;;;5044780;28;20107;-79
2022/01/17 02:43:21;;;;;;;36.83;14.25;;;2.80;99.90;;;;;;5058843;28;20037;-79
2022/01/17 02:48:22;;;;;;;44.30;14.75;;;2.60;99.90;;;;;;5047911;28;20040;-84
2022/01/17 02:50:48;;;;;;;42.90;15.88;;;;;;;;;;5051478;28;20052;-85
2022/01/17 02:53:14;;;;;;;39.65;13.63;;;2.60;99.90;;;;;;5048639;28;20032;-84
2022/01/17 02:55:46;;;;;;;42.28;14.55;;;2.50;99.90;;;;;;5048123;28;20029;-80
2022/01/17 02:58:12;;;;;;;39.50;14.75;;;2.50;99.90;;;;;;5044461;28;20025;-81
2022/01/17 03:00:38;;;;;;;35.83;13.50;;;5.20;99.90;;;;;;5046077;28;20028;-81
2022/01/17 03:03:04;;;;;;;34.78;13.75;;;;;;;;;;5046986;28;20024;-78
2022/01/17 03:05:30;;;;;;;35.90;12.95;;;2.50;99.90;;;;;;5046334;28;20030;-83
2022/01/17 03:07:56;;;;;;;37.78;14.15;;;3.60;99.90;;;;;;5045254;28;20055;-80
2022/01/17 03:10:39;;;;;;;38.05;14.10;;;2.50;99.90;;;;;;5059819;28;20949;-82
2022/01/17 03:13:17;;;;;;;42.72;15.57;;;2.50;99.90;;;;;;5042086;28;20029;-82
2022/01/17 03:15:53;;;;;;;35.53;13.23;;;2.50;99.90;;;;;;5045370;28;20053;-81
2022/01/17 03:18:19;;;;;;;34.70;13.05;;;;;;;;;;5044046;28;20030;-82
2022/01/17 03:20:45;;;;;;;39.08;14.18;;;;;;;;;;5042722;28;20087;-81
2022/01/17 03:23:11;;;;;;;38.90;13.45;;;;;;;;;;5042790;28;20025;-83
2022/01/17 03:25:37;;;;;;;40.85;14.20;;;;;;;;;;5075547;22;20033;-83
2022/01/17 15:26:40;;;;;;;16.38;9.57;;;5.70;99.90;;;;;;5059205;22;20044;-83
2022/01/17 15:29:21;;;;;;;19.30;11.00;;;5.70;99.90;;;;;;5028935;28;20060;-83
2022/01/17 15:32:08;;;;;;;19.85;9.30;;;5.60;99.90;;;;;;5043889;28;20038;-84
2022/01/17 15:34:44;;;;;;;15.60;9.80;;;5.50;99.90;;;;;;5037723;28;20057;-82
2022/01/17 15:37:26;;;;;;;18.10;10.68;;;5.40;99.90;;;;;;5058353;28;20029;-87
2022/01/17 15:40:05;;;;;;;18.23;10.98;;;5.50;99.90;;;;;;5067623;28;20429;-86
2022/01/17 15:42:39;;;;;;;17.65;9.48;;;5.50;99.90;;;;;;5045630;28;20025;-82
2022/01/17 15:45:11;;;;;;;16.65;9.90;;;5.40;99.90;;;;;;5051446;28;20092;-84
2022/01/17 15:47:39;;;;;;;19.65;10.57;;;5.40;99.90;;;;;;5028737;28;20044;-83
2022/01/17 15:50:06;;;;;;;18.52;10.77;;;5.40;99.90;;;;;;5041310;28;20029;-84
2022/01/17 15:52:34;;;;;;;18.27;10.20;;;4.90;99.90;;;;;;5042663;28;20032;-87
2022/01/17 15:55:05;;;;;;;17.30;10.23;;;5.40;99.90;;;;;;5041527;28;20028;-83
2022/01/17 15:57:36;;;;;;;17.25;9.73;;;5.20;99.90;;;;;;5040550;28;20032;-85
2022/01/17 16:00:07;;;;;;;19.30;9.88;;;5.40;99.90;;;;;;5042292;28;20118;-81
2022/01/17 16:02:34;;;;;;;18.60;10.00;;;;;;;;;;5039655;28;20036;-81
2022/01/17 16:05:01;;;;;;;19.92;10.40;;;5.40;99.90;;;;;;5041506;28;20033;-83
2022/01/17 16:07:28;;;;;;;22.77;12.02;;;5.40;99.90;;;;;;5034766;28;20355;-83
2022/01/17 16:09:54;;;;;;;17.55;10.77;;;5.40;99.90;;;;;;5043451;28;20082;-80
2022/01/17 16:12:20;;;;;;;17.67;11.13;;;5.30;99.90;;;;;;5039111;28;20021;-81
2022/01/17 16:14:48;;;;;;;18.48;9.93;;;5.40;99.90;;;;;;5040890;28;20378;-81
2022/01/17 16:17:14;;;;;;;17.15;10.40;;;5.30;99.90;;;;;;5044711;28;20032;-81
2022/01/17 16:19:43;;;;;;;20.05;11.02;;;7.20;99.90;;;;;;5038610;28;20025;-82
2022/01/17 16:22:09;;;;;;;20.00;10.68;;;5.10;99.90;;;;;;5033528;28;20527;-85
2022/01/17 16:24:37;;;;;;;21.27;10.77;;;;;;;;;;5050497;28;20037;-83
2022/01/17 16:27:04;;;;;;;18.35;11.10;;;5.40;99.90;;;;;;5036983;28;20033;-84
2022/01/17 16:29:30;;;;;;;19.27;10.55;;;5.40;99.90;;;;;;5037565;28;20492;-83
2022/01/17 16:31:56;;;;;;;18.80;9.88;;;5.50;99.90;;;;;;5035811;28;20026;-81
2022/01/17 16:34:23;;;;;;;16.98;10.10;;;;;;;;;;5034068;28;20106;-80
2022/01/17 16:36:52;;;;;;;16.60;9.70;;;6.00;99.90;;;;;;5039743;28;20032;-80
2022/01/17 16:39:19;;;;;;;17.17;10.32;;;4.80;99.90;;;;;;5030134;28;20481;-83
2022/01/17 16:41:45;;;;;;;18.70;10.70;;;5.40;99.90;;;;;;5038384;28;20048;-79
2022/01/17 16:44:14;;;;;;;19.58;10.35;;;5.40;99.90;;;;;;5037758;28;20503;-81
2022/01/17 16:46:41;;;;;;;15.43;9.18;;;5.50;99.90;;;;;;5046349;28;20099;-87
2022/01/17 16:49:08;;;;;;;19.20;10.57;;;5.30;99.90;;;;;;5039219;28;20024;-81
2022/01/17 16:51:41;;;;;;;15.85;9.43;;;5.30;99.90;;;;;;5040526;28;20029;-83
2022/01/17 16:54:09;;;;;;;23.48;11.15;;;5.40;99.90;;;;;;5039123;28;20025;-84
2022/01/17 16:56:38;;;;;;;18.45;9.90;;;4.20;99.90;;;;;;5038299;28;20033;-88
2022/01/17 16:59:05;;;;;;;19.10;10.65;;;5.40;99.90;;;;;;5060938;28;20076;-89
2022/01/17 17:01:33;;;;;;;18.15;10.02;;;5.10;99.90;;;;;;5048655;28;20037;-86
2022/01/17 17:04:02;;;;;;;16.73;9.65;;;5.40;99.90;;;;;;5021991;28;20477;-81
2022/01/17 17:06:30;;;;;;;17.95;10.23;;;5.40;99.90;;;;;;5037785;28;20034;-83
2022/01/17 17:08:57;;;;;;;16.98;9.73;;;6.20;99.90;;;;;;5036499;28;20451;-85
2022/01/17 17:11:24;;;;;;;17.95;10.43;;;5.40;99.90;;;;;;5037641;28;20025;-83
2022/01/17 17:13:57;;;;;;;16.63;9.07;;;5.50;99.90;;;;;;4998390;28;20286;-83
2022/01/17 17:16:25;;;;;;;19.50;11.30;;;5.50;99.90;;;;;;5040007;28;20029;-79
2022/01/17 17:18:57;;;;;;;20.88;11.10;;;5.30;99.90;;;;;;5029197;28;20072;-82
2022/01/17 17:21:24;;;;;;;18.98;10.35;;;5.30;99.90;;;;;;5041026;28;20029;-86
2022/01/17 17:23:56;;;;;;;17.80;9.38;;;5.40;99.90;;;;;;5059166;28;20029;-83
2022/01/17 17:26:29;;;;;;;18.92;9.93;;;5.30;99.90;;;;;;5039797;28;20455;-84
2022/01/17 17:28:56;;;;;;;19.60;10.02;;;5.10;99.90;;;;;;5049924;28;20048;-83
2022/01/17 17:31:22;;;;;;;18.15;9.25;;;5.60;99.90;;;;;;5039283;28;20025;-81
2022/01/17 17:33:49;;;;;;;21.45;10.48;;;6.70;99.90;;;;;;5034916;28;20036;-84
2022/01/17 17:36:15;;;;;;;21.40;11.20;;;5.30;99.90;;;;;;5031154;28;20064;-83
2022/01/17 17:38:41;;;;;;;20.17;11.60;;;5.40;99.90;;;;;;5014678;28;20028;-84
2022/01/17 17:41:06;;;;;;;17.02;10.00;;;5.40;99.90;;;;;;5033251;28;20052;-85
2022/01/17 17:43:33;;;;;;;21.25;10.95;;;;;;;;;;5035244;28;20029;-84
2022/01/17 17:45:59;;;;;;;19.73;10.70;;;5.50;99.90;;;;;;5056545;28;20378;-83
2022/01/17 17:48:26;;;;;;;19.48;10.40;;;5.00;99.90;;;;;;5041611;28;20049;-86
2022/01/17 17:50:52;;;;;;;21.27;11.48;;;5.40;99.90;;;;;;5054187;28;20033;-82
2022/01/17 17:53:18;;;;;;;18.77;10.27;;;5.50;99.90;;;;;;5038306;28;20029;-83
2022/01/17 17:55:44;;;;;;;17.25;9.68;;;;;;;;;;5036524;28;20120;-81
2022/01/17 17:58:10;;;;;;;18.92;10.10;;;5.50;99.90;;;;;;5037427;28;20029;-85
2022/01/17 18:00:37;;;;;;;19.65;10.25;;;5.60;99.90;;;;;;5033012;28;20042;-83
2022/01/17 18:03:03;;;;;;;22.67;11.55;;;3.60;99.90;;;;;;5037010;28;20473;-84
2022/01/17 18:05:30;;;;;;;19.02;10.57;;;4.00;99.90;;;;;;5054556;28;20250;-82
2022/01/17 18:07:56;;;;;;;21.25;11.23;;;5.70;99.90;;;;;;5037723;28;20017;-86
2022/01/17 18:10:23;;;;;;;19.40;11.02;;;4.90;99.90;;;;;;5037580;28;20029;-82
2022/01/17 18:12:49;;;;;;;23.27;11.25;;;5.50;99.90;;;;;;5035852;28;20021;-84
2022/01/17 18:15:15;;;;;;;19.45;9.77;;;4.70;99.90;;;;;;5038548;28;20028;-84
2022/01/17 18:17:41;;;;;;;23.15;11.18;;;5.40;99.90;;;;;;5037016;28;20048;-84
2022/01/17 18:20:09;;;;;;;18.10;9.38;;;5.60;99.90;;;;;;5040169;28;20041;-85
2022/01/17 18:22:35;;;;;;;19.08;10.95;;;5.40;99.90;;;;;;5034212;28;20025;-86
2022/01/17 18:25:01;;;;;;;21.98;10.52;;;5.30;99.90;;;;;;5056608;28;20025;-84
2022/01/17 18:27:27;;;;;;;19.80;10.55;;;;;;;;;;5046353;28;20036;-83
2022/01/17 18:29:52;;;;;;;20.20;10.68;;;5.50;99.90;;;;;;5041787;28;20453;-82
2022/01/17 18:32:18;;;;;;;19.65;11.40;;;5.50;99.90;;;;;;5045028;28;20025;-83
2022/01/17 18:34:44;;;;;;;21.30;11.55;;;5.50;99.90;;;;;;5045978;28;20036;-86
2022/01/17 18:37:10;;;;;;;19.63;10.65;;;6.80;99.90;;;;;;5044900;28;20025;-83
2022/01/17 18:39:36;;;;;;;26.35;11.52;;;5.40;99.90;;;;;;5042336;28;20140;-84
2022/01/17 18:42:03;;;;;;;22.30;10.75;;;5.40;99.90;;;;;;5041908;28;20028;-81
2022/01/17 18:44:30;;;;;;;23.88;13.02;;;5.40;99.90;;;;;;5038760;28;20052;-85
2022/01/17 18:46:56;;;;;;;20.95;11.57;;;5.50;99.90;;;;;;5044514;28;20088;-84
2022/01/17 18:49:23;;;;;;;23.13;11.80;;;;;;;;;;5032290;28;20052;-85
2022/01/17 18:51:54;;;;;;;21.52;11.32;;;5.40;99.90;;;;;;5034874;28;20120;-83
2022/01/17 18:54:20;;;;;;;25.50;11.85;;;;;;;;;;5041267;28;20067;-87
2022/01/17 18:56:46;;;;;;;21.77;11.75;;;5.30;99.90;;;;;;5037808;28;20124;-85
2022/01/17 18:59:12;;;;;;;21.80;11.35;;;5.20;99.90;;;;;;5055650;28;20028;-81
2022/01/17 19:01:39;;;;;;;24.33;10.85;;;;;;;;;;5033145;28;20028;-85
2022/01/17 19:04:06;;;;;;;21.15;11.25;;;5.30;99.90;;;;;;5043132;28;20033;-84
2022/01/17 19:06:33;;;;;;;22.75;11.30;;;5.30;99.90;;;;;;5055777;28;20104;-86
2022/01/17 19:09:02;;;;;;;22.45;11.57;;;4.20;99.90;;;;;;5057065;28;20774;-90
2022/01/17 19:11:28;;;;;;;24.17;12.25;;;5.20;99.90;;;;;;5052080;28;20017;-91
2022/01/17 19:13:54;;;;;;;21.35;12.32;;;;;;;;;;5051487;28;20029;-82
2022/01/17 19:16:22;;;;;;;29.50;13.57;;;;;;;;;;5043766;28;20252;-83
2022/01/17 19:23:56;;;;;;;23.50;12.18;;;5.40;99.90;;;;;;5055597;28;20044;-82
2022/01/17 19:26:22;;;;;;;24.52;12.15;;;5.30;99.90;;;;;;5035596;28;20093;-81
2022/01/17 19:28:52;;;;;;;20.25;11.52;;;5.30;99.90;;;;;;5040446;28;20056;-84
2022/01/17 19:31:18;;;;;;;24.65;12.95;;;5.50;99.90;;;;;;5024465;28;20041;-82
2022/01/17 19:33:44;;;;;;;21.77;11.82;;;;;;;;;;5040019;28;20101;-83
2022/01/17 19:36:12;;;;;;;24.38;11.90;;;5.30;99.90;;;;;;5031328;28;20048;-83
2022/01/17 19:38:39;;;;;;;23.55;11.70;;;5.30;99.90;;;;;;5040697;28;20047;-83
2022/01/17 19:41:06;;;;;;;26.02;12.50;;;;;;;;;;5033413;28;20136;-82
2022/01/17 19:43:32;;;;;;;22.90;12.65;;;;;;;;;;5040857;28;20035;-88
2022/01/17 19:46:00;;;;;;;34.25;12.73;;;;;;;;;;5039238;28;20064;-89
2022/01/17 19:48:26;;;;;;;26.73;12.52;;;5.40;99.90;;;;;;5037571;28;20319;-82
2022/01/17 19:50:52;;;;;;;31.20;13.30;;;;;;;;;;5056911;28;20462;-86
2022/01/17 19:53:23;;;;;;;25.40;12.45;;;5.40;99.90;;;;;;5045583;28;20049;-84
2022/01/17 19:55:49;;;;;;;27.23;13.25;;;5.50;99.90;;;;;;5039672;28;20025;-84
2022/01/17 19:58:16;;;;;;;25.88;13.45;;;;;;;;;;5044626;28;20041;-82
2022/01/17 20:00:42;;;;;;;24.50;12.70;;;;;;;;;;5036508;28;20025;-81
2022/01/17 20:03:08;;;;;;;27.23;12.90;;;5.50;99.90;;;;;;5037073;28;20029;-85
2022/01/17 20:05:34;;;;;;;25.73;12.75;;;4.30;99.90;;;;;;5019157;28;20124;-81
2022/01/17 20:08:00;;;;;;;28.42;14.30;;;5.40;99.90;;;;;;5035100;28;20037;-83
2022/01/17 20:10:29;;;;;;;26.20;13.35;;;7.20;99.90;;;;;;5035177;28;20030;-83
2022/01/17 20:12:57;;;;;;;25.40;14.32;;;5.30;99.90;;;;;;5036601;28;20029;-84
2022/01/17 20:15:23;;;;;;;30.58;15.15;;;5.30;99.90;;;;;;5040776;28;20033;-84
2022/01/17 20:17:49;;;;;;;28.92;14.73;;;;;;;;;;5037982;28;20025;-85
2022/01/17 20:20:21;;;;;;;26.02;13.18;;;5.30;99.90;;;;;;5036844;28;20025;-88
2022/01/17 20:22:48;;;;;;;27.80;13.60;;;7.30;99.90;;;;;;5032692;28;20124;-84
2022/01/17 20:25:15;;;;;;;25.15;12.88;;;5.30;99.90;;;;;;5036447;28;20056;-82
2022/01/17 20:27:43;;;;;;;28.08;14.60;;;5.20;99.90;;;;;;5055844;28;20485;-82
2022/01/17 20:30:11;;;;;;;26.63;13.65;;;5.30;99.90;;;;;;5038240;28;20105;-82
2022/01/17 20:32:38;;;;;;;28.83;14.35;;;;;;;;;;5037466;28;20034;-85
2022/01/17 20:35:07;;;;;;;29.92;14.75;;;5.30;99.90;;;;;;5034286;28;20685;-85
2022/01/17 20:37:34;;;;;;;28.48;14.07;;;5.30;99.90;;;;;;5044851;28;20037;-83
2022/01/17 20:40:00;;;;;;;29.23;14.82;;;5.20;99.90;;;;;;5037208;28;20060;-84
2022/01/17 20:42:27;;;;;;;33.58;15.18;;;;;;;;;;5060582;28;20033;-82
2022/01/17 20:44:53;;;;;;;30.23;14.32;;;5.20;99.90;;;;;;5061292;28;20021;-84
2022/01/17 20:47:19;;;;;;;31.00;15.55;;;;;;;;;;5057680;28;20053;-85
2022/01/17 20:49:45;;;;;;;31.25;14.85;;;;;;;;;;5039442;28;20501;-83
2022/01/17 20:52:11;;;;;;;33.30;15.45;;;;;;;;;;5051316;28;20021;-82
2022/01/17 20:54:39;;;;;;;29.40;15.88;;;5.20;99.90;;;;;;5041397;28;20101;-84
2022/01/17 20:57:08;;;;;;;31.50;14.45;;;5.30;99.90;;;;;;5037676;28;20033;-82
2022/01/17 20:59:35;;;;;;;37.92;18.30;;;5.40;99.90;;;;;;5041546;28;20025;-83
2022/01/17 21:02:01;;;;;;;31.13;15.30;;;4.30;99.90;;;;;;5043427;28;20163;-85
2022/01/17 21:04:30;;;;;;;32.78;15.00;;;5.60;99.90;;;;;;5038785;28;20250;-90
2022/01/17 21:06:56;;;;;;;34.35;16.75;;;5.30;99.90;;;;;;5038135;28;20544;-83
2022/01/17 21:09:23;;;;;;;35.50;16.35;;;;;;;;;;5035544;28;20029;-80
2022/01/17 21:11:49;;;;;;;31.10;15.65;;;5.90;99.90;;;;;;5029800;28;20120;-81
2022/01/17 21:14:15;;;;;;;33.28;16.15;;;7.40;99.90;;;;;;5028919;28;20056;-83
2022/01/17 21:16:45;;;;;;;38.00;17.98;;;5.70;99.90;;;;;;5041387;28;20395;-83
2022/01/17 21:19:14;;;;;;;32.20;15.93;;;5.40;99.90;;;;;;5037868;28;20028;-82
2022/01/17 21:21:46;;;;;;;34.92;15.48;;;4.80;99.90;;;;;;5030419;28;20453;-85
2022/01/17 21:24:13;;;;;;;32.90;15.63;;;5.30;99.90;;;;;;5034901;28;20032;-85
2022/01/17 21:26:51;;;;;;;34.40;15.80;;;5.30;99.90;;;;;;5035632;28;20518;-82
2022/01/17 21:29:19;;;;;;;37.70;16.55;;;4.20;99.90;;;;;;5041244;28;20233;-85
2022/01/17 21:31:47;;;;;;;34.00;16.23;;;5.30;99.90;;;;;;5060996;28;20025;-84
2022/01/17 21:34:16;;;;;;;32.88;15.95;;;4.00;99.90;;;;;;5064389;28;20031;-87
2022/01/17 21:36:42;;;;;;;37.17;16.67;;;;;;;;;;5067363;28;20064;-82
2022/01/17 21:39:08;;;;;;;39.50;17.77;;;5.40;99.90;;;;;;5032625;28;20295;-85
2022/01/17 21:41:38;;;;;;;34.28;17.25;;;;;;;;;;5051195;28;20025;-84
2022/01/17 21:44:30;;;;;;;39.63;18.48;;;7.60;99.90;;;;;;5057999;28;20029;-82
2022/01/17 21:47:01;;;;;;;33.47;16.50;;;5.40;99.90;;;;;;5043466;28;20033;-82
2022/01/17 21:49:27;;;;;;;37.95;17.05;;;6.00;99.90;;;;;;5033156;28;20041;-85
2022/01/17 21:51:53;;;;;;;35.50;17.17;;;6.50;99.90;;;;;;5048841;28;20025;-87
2022/01/17 21:54:24;;;;;;;35.78;16.50;;;5.50;99.90;;;;;;5045358;28;20031;-86
2022/01/17 21:56:51;;;;;;;41.40;17.17;;;5.50;99.90;;;;;;5046170;28;20036;-81
2022/01/17 21:59:16;;;;;;;37.28;17.38;;;5.50;99.90;;;;;;5042828;28;20110;-79
2022/01/17 22:01:42;;;;;;;40.28;19.17;;;;;;;;;;5031581;28;20033;-79
2022/01/17 22:04:08;;;;;;;34.67;17.20;;;5.40;99.90;;;;;;5041638;28;20033;-79
2022/01/17 22:06:34;;;;;;;36.75;16.30;;;;;;;;;;5058958;28;20025;-79
2022/01/17 22:09:00;;;;;;;42.80;17.42;;;5.40;99.90;;;;;;5042475;28;20048;-78
2022/01/17 22:11:26;;;;;;;44.05;19.00;;;5.40;99.90;;;;;;5040516;28;20024;-79
2022/01/17 22:13:51;;;;;;;36.40;17.38;;;7.40;99.90;;;;;;5036423;28;20088;-79
2022/01/17 22:16:17;;;;;;;41.42;17.15;;;;;;;;;;5059100;28;20064;-77
2022/01/17 22:18:43;;;;;;;40.97;18.40;;;5.40;99.90;;;;;;5058737;28;20028;-80
2022/01/17 22:21:10;;;;;;;41.25;17.80;;;5.40;99.90;;;;;;5036946;28;20446;-81
2022/01/17 22:23:36;;;;;;;40.67;18.50;;;7.20;99.90;;;;;;5039497;28;20040;-81
2022/01/17 22:26:03;;;;;;;46.80;20.33;;;5.90;99.90;;;;;;5035266;28;20330;-80
2022/01/17 22:28:30;;;;;;;42.15;18.30;;;5.40;99.90;;;;;;5036101;28;20092;-79
2022/01/17 22:30:56;;;;;;;40.92;18.75;;;5.40;99.90;;;;;;5057493;28;20192;-81
2022/01/17 22:33:22;;;;;;;40.65;18.55;;;5.40;99.90;;;;;;5039632;28;20037;-80
2022/01/17 22:35:48;;;;;;;40.97;18.58;;;5.50;99.90;;;;;;5061974;28;20055;-78
2022/01/17 22:38:17;;;;;;;36.03;16.77;;;5.60;99.90;;;;;;5041233;28;20033;-78
2022/01/17 22:40:43;;;;;;;43.85;19.13;;;8.80;99.90;;;;;;5056811;28;20028;-81
2022/01/17 22:43:09;;;;;;;40.13;17.88;;;;;;;;;;5043351;28;20039;-80
2022/01/17 22:45:35;;;;;;;42.10;18.17;;;5.50;99.90;;;;;;5033392;28;20425;-84
2022/01/17 22:48:01;;;;;;;39.17;17.77;;;5.50;99.90;;;;;;5057647;28;20041;-79
2022/01/17 22:50:28;;;;;;;41.92;17.90;;;5.50;99.90;;;;;;5042167;28;20018;-80
2022/01/17 22:52:54;;;;;;;38.25;17.08;;;5.50;99.90;;;;;;5043018;28;20045;-80
2022/01/17 22:55:20;;;;;;;44.40;17.73;;;6.00;99.90;;;;;;5040541;28;20032;-79
2022/01/17 22:57:45;;;;;;;41.95;17.63;;;6.00;99.90;;;;;;5064619;28;20055;-82
2022/01/17 23:00:13;;;;;;;46.15;20.00;;;5.60;99.90;;;;;;5063325;28;20055;-80
2022/01/17 23:02:39;;;;;;;49.38;20.40;;;5.60;99.90;;;;;;5047344;28;20045;-79
2022/01/17 23:05:06;;;;;;;44.45;19.75;;;6.90;99.90;;;;;;5062462;28;20111;-81
2022/01/17 23:07:31;;;;;;;49.30;21.20;;;5.60;99.90;;;;;;5058041;28;20030;-84
2022/01/17 23:09:58;;;;;;;46.55;19.95;;;;;;;;;;5063613;28;20088;-79
2022/01/17 23:12:23;;;;;;;45.58;20.05;;;5.60;99.90;;;;;;5060205;28;20085;-79
2022/01/17 23:14:49;;;;;;;47.63;18.63;;;;;;;;;;5063405;28;20037;-80
2022/01/17 23:17:17;;;;;;;43.42;19.05;;;5.60;99.90;;;;;;5049014;28;20040;-80
2022/01/17 23:19:48;;;;;;;45.10;20.50;;;5.60;99.90;;;;;;5060643;28;20026;-79
2022/01/17 23:22:15;;;;;;;48.05;19.02;;;6.60;99.90;;;;;;5062269;28;20025;-80
2022/01/17 23:24:43;;;;;;;45.50;19.73;;;5.30;99.90;;;;;;5062785;28;20921;-80
2022/01/17 23:27:10;;;;;;;48.35;20.08;;;5.60;99.90;;;;;;5041706;28;20039;-79
2022/01/17 23:29:36;;;;;;;53.78;23.85;;;8.60;99.90;;;;;;5063487;28;20017;-79
2022/01/17 23:34:47;;;;;;;51.90;20.80;;;5.60;99.90;;;;;;5063978;28;20036;-83
2022/01/17 23:37:16;;;;;;;55.17;19.70;;;7.00;99.90;;;;;;5047528;28;20430;-83
2022/01/17 23:39:42;;;;;;;47.17;20.33;;;8.10;99.90;;;;;;5062292;28;20063;-81
2022/01/17 23:42:08;;;;;;;48.65;21.25;;;5.60;99.90;;;;;;5064258;28;20033;-80
2022/01/17 23:44:34;;;;;;;46.17;20.27;;;5.60;99.90;;;;;;5047510;28;20013;-85
2022/01/17 23:47:00;;;;;;;48.35;21.17;;;7.50;99.90;;;;;;5044986;28;20036;-80
2022/01/17 23:49:26;;;;;;;61.75;26.58;;;5.60;99.90;;;;;;5047603;28;20025;-82
2022/01/17 23:51:51;;;;;;;45.42;19.33;;;5.50;99.90;;;;;;5062995;28;20087;-81
2022/01/17 23:54:18;;;;;;;52.05;20.10;;;;;;;;;;5047529;28;20043;-82
2022/01/17 23:56:45;;;;;;;51.03;20.73;;;5.60;99.90;;;;;;5064498;28;20036;-82
2022/01/17 23:59:19;;;;;;;46.65;20.08;;;5.70;99.90;;;;;;5042642;28;20024;-83
